sensor_id;sensor_type;location;lat;lon;timestamp;pressure;altitude;pressure_sealevel;temperature;humidity
3590;BME280;1809;48.470;9.226;2023-03-14T00:01:51;151210.28;;;9.49;100.00
3590;BME280;1809;48.470;9.226;2023-03-14T00:04:16;152243.84;;;9.46;100.00
3590;BME280;1809;48.470;9.226;2023-03-14T00:06:41;152593.44;;;9.47;100.00
3590;BME280;1809;48.470;9.226;2023-03-14T00:09:07;152243.84;;;9.46;100.00
3590;BME280;1809;48.470;9.226;2023-03-14T00:11:33;152229.91;;;9.41;100.00
3590;BME280;1809;48.470;9.226;2023-03-14T00:13:58;152568.09;;;9.37;100.00
3590;BME280;1809;48.470;9.226;2023-03-14T00:16:25;152556.72;;;9.33;100.00
3590;BME280;1809;48.470;9.226;2023-03-14T00:18:51;151875.31;;;9.38;100.00
3590;BME280;1809;48.470;9.226;2023-03-14T00:21:17;151518.28;;;9.34;100.00
3590;BME280;1809;48.470;9.226;2023-03-14T00:23:43;151160.03;;;9.29;100.00
3590;BME280;1809;48.470;9.226;2023-03-14T00:26:11;150455.13;;;9.25;100.00
3590;BME280;1809;48.470;9.226;2023-03-14T00:28:37;150788.13;;;9.19;100.00
3590;BME280;1809;48.470;9.226;2023-03-14T00:31:04;151475.50;;;9.16;100.00
3590;BME280;1809;48.470;9.226;2023-03-14T00:33:29;151826.16;;;9.18;100.00
3590;BME280;1809;48.470;9.226;2023-03-14T00:36:00;151814.78;;;9.13;100.00
3590;BME280;1809;48.470;9.226;2023-03-14T00:38:27;152155.38;;;9.11;100.00
3590;BME280;1809;48.470;9.226;2023-03-14T00:40:52;152499.72;;;9.10;100.00
3590;BME280;1809;48.470;9.226;2023-03-14T00:43:19;151805.97;;;9.10;100.00
3590;BME280;1809;48.470;9.226;2023-03-14T00:45:47;151811.03;;;9.12;100.00
3590;BME280;1809;48.470;9.226;2023-03-14T00:48:13;151474.22;;;9.16;100.00
3590;BME280;1809;48.470;9.226;2023-03-14T00:50:38;151102.34;;;9.06;100.00
3590;BME280;1809;48.470;9.226;2023-03-14T00:53:04;151459.13;;;9.10;100.00
3590;BME280;1809;48.470;9.226;2023-03-14T00:55:29;151121.16;;;9.13;100.00
3590;BME280;1809;48.470;9.226;2023-03-14T00:57:54;151118.63;;;9.12;100.00
3590;BME280;1809;48.470;9.226;2023-03-14T01:00:20;150763.13;;;9.09;100.00
3590;BME280;1809;48.470;9.226;2023-03-14T01:02:45;150793.16;;;9.21;100.00
3590;BME280;1809;48.470;9.226;2023-03-14T01:05:11;150781.88;;;9.16;100.00
3590;BME280;1809;48.470;9.226;2023-03-14T01:07:36;151127.41;;;9.16;100.00
3590;BME280;1809;48.470;9.226;2023-03-14T01:10:03;151136.19;;;9.19;100.00
3590;BME280;1809;48.470;9.226;2023-03-14T01:12:29;151484.31;;;9.20;100.00
3590;BME280;1809;48.470;9.226;2023-03-14T01:14:54;151827.38;;;9.18;100.00
3590;BME280;1809;48.470;9.226;2023-03-14T01:17:19;151842.56;;;9.25;100.00
3590;BME280;1809;48.470;9.226;2023-03-14T01:19:45;151833.72;;;9.21;100.00
3590;BME280;1809;48.470;9.226;2023-03-14T01:22:10;151848.84;;;9.27;100.00
3590;BME280;1809;48.470;9.226;2023-03-14T01:24:37;151846.31;;;9.26;100.00
3590;BME280;1809;48.470;9.226;2023-03-14T01:27:02;151862.72;;;9.33;100.00
3590;BME280;1809;48.470;9.226;2023-03-14T01:29:28;151853.88;;;9.29;100.00
3590;BME280;1809;48.470;9.226;2023-03-14T01:31:53;152558.00;;;9.33;100.00
3590;BME280;1809;48.470;9.226;2023-03-14T01:34:18;152889.81;;;9.27;100.00
3590;BME280;1809;48.470;9.226;2023-03-14T01:36:43;153255.94;;;9.35;100.00
3590;BME280;1809;48.470;9.226;2023-03-14T01:39:09;153578.84;;;9.25;100.00
3590;BME280;1809;48.470;9.226;2023-03-14T01:41:34;153566.09;;;9.20;100.00
3590;BME280;1809;48.470;9.226;2023-03-14T01:44:00;154268.00;;;9.23;100.00
3590;BME280;1809;48.470;9.226;2023-03-14T01:46:26;154985.53;;;9.32;100.00
3590;BME280;1809;48.470;9.226;2023-03-14T01:49:29;154610.03;;;9.21;100.00
3590;BME280;1809;48.470;9.226;2023-03-14T01:51:52;154959.75;;;9.22;100.00
3590;BME280;1809;48.470;9.226;2023-03-14T01:54:37;154612.56;;;9.22;100.00
3590;BME280;1809;48.470;9.226;2023-03-14T01:57:08;154613.88;;;9.23;100.00
3590;BME280;1809;48.470;9.226;2023-03-14T01:59:37;154257.72;;;9.19;100.00
3590;BME280;1809;48.470;9.226;2023-03-14T02:02:06;154244.91;;;9.14;100.00
3590;BME280;1809;48.470;9.226;2023-03-14T02:04:35;154264.13;;;9.22;100.00
3590;BME280;1809;48.470;9.226;2023-03-14T02:07:13;153586.50;;;9.28;100.00
3590;BME280;1809;48.470;9.226;2023-03-14T02:09:41;153234.31;;;9.26;100.00
3590;BME280;1809;48.470;9.226;2023-03-14T02:12:09;153231.75;;;9.25;100.00
3590;BME280;1809;48.470;9.226;2023-03-14T02:14:36;153254.66;;;9.34;100.00
3590;BME280;1809;48.470;9.226;2023-03-14T02:17:03;152568.09;;;9.37;100.00
3590;BME280;1809;48.470;9.226;2023-03-14T02:22:10;150486.31;;;9.37;100.00
3590;BME280;1809;48.470;9.226;2023-03-14T02:27:39;150144.47;;;9.39;100.00
3590;BME280;1809;48.470;9.226;2023-03-14T02:30:15;149104.09;;;9.39;100.00
3590;BME280;1809;48.470;9.226;2023-03-14T02:32:44;148752.41;;;9.37;100.00
3590;BME280;1809;48.470;9.226;2023-03-14T02:35:15;148751.22;;;9.37;100.00
3590;BME280;1809;48.470;9.226;2023-03-14T02:38:03;148381.13;;;9.27;100.00
3590;BME280;1809;48.470;9.226;2023-03-14T02:40:32;148041.91;;;9.30;100.00
3590;BME280;1809;48.470;9.226;2023-03-14T02:42:57;146669.22;;;9.36;100.00
3590;BME280;1809;48.470;9.226;2023-03-14T02:45:27;142166.56;;;9.35;100.00
3590;BME280;1809;48.470;9.226;2023-03-14T02:47:57;137679.94;;;9.39;100.00
3590;BME280;1809;48.470;9.226;2023-03-14T02:50:29;130446.31;;;9.47;100.00
3590;BME280;1809;48.470;9.226;2023-03-14T02:52:56;119099.19;;;9.57;100.00
3590;BME280;1809;48.470;9.226;2023-03-14T02:55:22;105713.66;;;9.58;100.00
3590;BME280;1809;48.470;9.226;2023-03-14T02:57:47;89991.22;;;9.59;100.00
3590;BME280;1809;48.470;9.226;2023-03-14T03:00:13;75698.25;;;9.61;100.00
3590;BME280;1809;48.470;9.226;2023-03-14T03:02:38;94059.53;;;9.42;100.00
3590;BME280;1809;48.470;9.226;2023-03-14T03:05:04;87250.84;;;9.50;100.00
3590;BME280;1809;48.470;9.226;2023-03-14T03:07:29;84178.53;;;9.45;100.00
3590;BME280;1809;48.470;9.226;2023-03-14T03:09:55;91675.97;;;9.45;100.00
3590;BME280;1809;48.470;9.226;2023-03-14T03:12:20;90994.47;;;9.46;100.00
3590;BME280;1809;48.470;9.226;2023-03-14T03:14:45;91675.97;;;9.45;100.00
3590;BME280;1809;48.470;9.226;2023-03-14T03:17:11;90311.59;;;9.45;100.00
3590;BME280;1809;48.470;9.226;2023-03-14T03:19:36;95431.59;;;9.46;100.00
3590;BME280;1809;48.470;9.226;2023-03-14T03:22:01;102944.16;;;9.40;100.00
3590;BME280;1809;48.470;9.226;2023-03-14T03:24:27;102605.34;;;9.42;100.00
3590;BME280;1809;48.470;9.226;2023-03-14T03:26:53;95080.69;;;9.40;100.00
3590;BME280;1809;48.470;9.226;2023-03-14T03:29:18;90661.56;;;9.51;100.00
3590;BME280;1809;48.470;9.226;2023-03-14T03:31:44;75349.34;;;9.54;100.00
3590;BME280;1809;48.470;9.226;2023-03-14T03:34:11;71273.69;;;9.51;100.00
3590;BME280;1809;48.470;9.226;2023-03-14T03:36:37;54031.50;;;9.65;100.00
3590;BME280;1809;48.470;9.226;2023-03-14T03:39:03;35522.63;;;9.74;100.00
3590;BME280;1809;48.470;9.226;2023-03-14T03:41:29;21784.75;;;9.72;100.00
3590;BME280;1809;48.470;9.226;2023-03-14T03:43:55;27805.00;;;9.64;100.00
3590;BME280;1809;48.470;9.226;2023-03-14T03:46:20;16105.75;;;9.73;100.00
3590;BME280;1809;48.470;9.226;2023-03-14T03:48:45;5192.22;;;9.70;100.00
3590;BME280;1809;48.470;9.226;2023-03-14T03:51:13;-2507.84;;;9.81;100.00
3590;BME280;1809;48.470;9.226;2023-03-14T03:53:39;-4835.28;;;9.75;100.00
3590;BME280;1809;48.470;9.226;2023-03-14T03:56:05;-4013.66;;;9.73;100.00
3590;BME280;1809;48.470;9.226;2023-03-14T03:58:30;5441.59;;;9.69;100.00
3590;BME280;1809;48.470;9.226;2023-03-14T04:00:55;2669.59;;;9.70;100.00
3590;BME280;1809;48.470;9.226;2023-03-14T04:03:21;-2854.66;;;9.69;100.00
3590;BME280;1809;48.470;9.226;2023-03-14T04:05:46;-3715.22;;;9.68;100.00
3590;BME280;1809;48.470;9.226;2023-03-14T04:08:11;-16441.47;;;9.78;100.00
3590;BME280;1809;48.470;9.226;2023-03-14T04:10:37;-16444.16;;;9.87;100.00
3590;BME280;1809;48.470;9.226;2023-03-14T04:13:02;-16445.00;;;9.90;100.00
3590;BME280;1809;48.470;9.226;2023-03-14T04:15:28;-16445.13;;;9.91;100.00
3590;BME280;1809;48.470;9.226;2023-03-14T04:17:57;-16447.81;;;10.00;100.00
3590;BME280;1809;48.470;9.226;2023-03-14T04:20:23;-16447.81;;;10.00;100.00
3590;BME280;1809;48.470;9.226;2023-03-14T04:22:48;-16447.94;;;10.01;100.00
3590;BME280;1809;48.470;9.226;2023-03-14T04:25:13;-16447.09;;;9.98;100.00
3590;BME280;1809;48.470;9.226;2023-03-14T04:27:38;-16446.81;;;9.97;100.00
3590;BME280;1809;48.470;9.226;2023-03-14T04:30:04;-16446.69;;;9.96;100.00
3590;BME280;1809;48.470;9.226;2023-03-14T04:32:30;-16445.84;;;9.93;100.00
3590;BME280;1809;48.470;9.226;2023-03-14T04:34:55;-16446.81;;;9.97;100.00
3590;BME280;1809;48.470;9.226;2023-03-14T04:37:20;-16446.81;;;9.97;100.00
3590;BME280;1809;48.470;9.226;2023-03-14T04:39:46;-16445.97;;;9.94;100.00
3590;BME280;1809;48.470;9.226;2023-03-14T04:42:11;-16446.25;;;9.95;100.00
3590;BME280;1809;48.470;9.226;2023-03-14T04:44:36;-16447.94;;;10.01;100.00
3590;BME280;1809;48.470;9.226;2023-03-14T04:47:01;-16449.34;;;10.06;100.00
3590;BME280;1809;48.470;9.226;2023-03-14T04:49:27;-16449.06;;;10.05;100.00
3590;BME280;1809;48.470;9.226;2023-03-14T04:51:52;-16448.22;;;10.02;100.00
3590;BME280;1809;48.470;9.226;2023-03-14T04:54:18;-16448.66;;;10.03;100.00
3590;BME280;1809;48.470;9.226;2023-03-14T04:56:43;-16449.78;;;10.07;100.00
3590;BME280;1809;48.470;9.226;2023-03-14T04:59:09;-16449.34;;;10.06;100.00
3590;BME280;1809;48.470;9.226;2023-03-14T05:01:34;-16450.75;;;10.11;100.00
3590;BME280;1809;48.470;9.226;2023-03-14T05:04:00;-16451.59;;;10.14;100.00
3590;BME280;1809;48.470;9.226;2023-03-14T05:06:25;-16450.75;;;10.11;100.00
3590;BME280;1809;48.470;9.226;2023-03-14T05:08:51;-16453.44;;;10.20;100.00
3590;BME280;1809;48.470;9.226;2023-03-14T05:11:16;-16454.41;;;10.24;100.00
3590;BME280;1809;48.470;9.226;2023-03-14T05:13:42;-16452.31;;;10.16;100.00
3590;BME280;1809;48.470;9.226;2023-03-14T05:16:09;-16452.72;;;10.18;100.00
3590;BME280;1809;48.470;9.226;2023-03-14T05:18:34;-16453.72;;;10.21;100.00
3590;BME280;1809;48.470;9.226;2023-03-14T05:21:00;-16455.81;;;10.29;100.00
3590;BME280;1809;48.470;9.226;2023-03-14T05:23:26;-16456.09;;;10.30;100.00
3590;BME280;1809;48.470;9.226;2023-03-14T05:25:51;-16455.13;;;10.27;100.00
3590;BME280;1809;48.470;9.226;2023-03-14T05:28:16;-16454.41;;;10.24;100.00
3590;BME280;1809;48.470;9.226;2023-03-14T05:30:42;-16454.13;;;10.23;100.00
3590;BME280;1809;48.470;9.226;2023-03-14T05:33:07;-16452.16;;;10.16;100.00
3590;BME280;1809;48.470;9.226;2023-03-14T05:35:32;-16454.69;;;10.25;100.00
3590;BME280;1809;48.470;9.226;2023-03-14T05:37:58;-16453.72;;;10.21;100.00
3590;BME280;1809;48.470;9.226;2023-03-14T05:40:23;-16452.16;;;10.16;100.00
3590;BME280;1809;48.470;9.226;2023-03-14T05:42:48;-16450.34;;;10.09;100.00
3590;BME280;1809;48.470;9.226;2023-03-14T05:45:14;-16451.88;;;10.15;100.00
3590;BME280;1809;48.470;9.226;2023-03-14T05:47:39;-16454.13;;;10.23;100.00
3590;BME280;1809;48.470;9.226;2023-03-14T05:50:04;-16453.00;;;10.19;100.00
3590;BME280;1809;48.470;9.226;2023-03-14T05:52:30;-16454.28;;;10.23;100.00
3590;BME280;1809;48.470;9.226;2023-03-14T05:54:55;-16453.44;;;10.20;100.00
3590;BME280;1809;48.470;9.226;2023-03-14T05:57:20;-16452.72;;;10.18;100.00
3590;BME280;1809;48.470;9.226;2023-03-14T05:59:46;-16453.16;;;10.19;100.00
3590;BME280;1809;48.470;9.226;2023-03-14T06:02:11;-16451.88;;;10.15;100.00
3590;BME280;1809;48.470;9.226;2023-03-14T06:04:36;-16451.59;;;10.14;100.00
3590;BME280;1809;48.470;9.226;2023-03-14T06:07:02;-16451.47;;;10.13;100.00
3590;BME280;1809;48.470;9.226;2023-03-14T06:09:27;-16451.75;;;10.14;100.00
3590;BME280;1809;48.470;9.226;2023-03-14T06:11:53;-16453.00;;;10.19;100.00
3590;BME280;1809;48.470;9.226;2023-03-14T06:14:18;-16454.00;;;10.22;100.00
3590;BME280;1809;48.470;9.226;2023-03-14T06:16:43;-16454.41;;;10.24;100.00
3590;BME280;1809;48.470;9.226;2023-03-14T06:19:09;-16456.66;;;10.32;100.00
3590;BME280;1809;48.470;9.226;2023-03-14T06:21:35;-16456.94;;;10.33;100.00
3590;BME280;1809;48.470;9.226;2023-03-14T06:24:00;-16457.50;;;10.35;100.00
3590;BME280;1809;48.470;9.226;2023-03-14T06:26:26;-16458.63;;;10.39;100.00
3590;BME280;1809;48.470;9.226;2023-03-14T06:28:51;-16458.78;;;10.40;100.00
3590;BME280;1809;48.470;9.226;2023-03-14T06:31:18;-16461.84;;;10.51;100.00
3590;BME280;1809;48.470;9.226;2023-03-14T06:33:43;-16462.69;;;10.54;100.00
3590;BME280;1809;48.470;9.226;2023-03-14T06:36:09;-16465.22;;;10.63;100.00
3590;BME280;1809;48.470;9.226;2023-03-14T06:38:34;-16466.78;;;10.68;100.00
3590;BME280;1809;48.470;9.226;2023-03-14T06:41:07;-16468.19;;;10.73;100.00
3590;BME280;1809;48.470;9.226;2023-03-14T06:43:32;-16469.44;;;10.78;100.00
3590;BME280;1809;48.470;9.226;2023-03-14T06:45:57;-16471.81;;;10.87;100.00
3590;BME280;1809;48.470;9.226;2023-03-14T06:48:23;-16471.81;;;10.87;100.00
3590;BME280;1809;48.470;9.226;2023-03-14T06:50:49;-16471.69;;;10.86;100.00
3590;BME280;1809;48.470;9.226;2023-03-14T06:53:14;-16470.97;;;10.84;100.00
3590;BME280;1809;48.470;9.226;2023-03-14T06:55:40;-16472.09;;;10.88;100.00
3590;BME280;1809;48.470;9.226;2023-03-14T06:58:05;-16470.69;;;10.83;100.00
3590;BME280;1809;48.470;9.226;2023-03-14T07:00:33;-16470.97;;;10.84;100.00
3590;BME280;1809;48.470;9.226;2023-03-14T07:02:59;-16470.97;;;10.84;100.00
3590;BME280;1809;48.470;9.226;2023-03-14T07:05:24;-16471.25;;;10.85;100.00
3590;BME280;1809;48.470;9.226;2023-03-14T07:07:49;-16471.13;;;10.84;100.00
3590;BME280;1809;48.470;9.226;2023-03-14T07:10:15;-16474.22;;;10.95;100.00
3590;BME280;1809;48.470;9.226;2023-03-14T07:12:40;-16475.47;;;11.00;100.00
3590;BME280;1809;48.470;9.226;2023-03-14T07:15:06;-16479.69;;;11.15;100.00
3590;BME280;1809;48.470;9.226;2023-03-14T07:17:31;-16480.41;;;11.17;100.00
3590;BME280;1809;48.470;9.226;2023-03-14T07:19:57;-16481.09;;;11.20;100.00
3590;BME280;1809;48.470;9.226;2023-03-14T07:22:22;-16479.41;;;11.14;100.00
3590;BME280;1809;48.470;9.226;2023-03-14T07:24:47;-16479.69;;;11.15;100.00
3590;BME280;1809;48.470;9.226;2023-03-14T07:27:13;-16480.25;;;11.17;100.00
3590;BME280;1809;48.470;9.226;2023-03-14T07:29:38;-16477.44;;;11.07;100.00
3590;BME280;1809;48.470;9.226;2023-03-14T07:32:03;-16478.44;;;11.10;100.00
3590;BME280;1809;48.470;9.226;2023-03-14T07:34:29;-16478.44;;;11.10;100.00
3590;BME280;1809;48.470;9.226;2023-03-14T07:36:54;-16479.13;;;11.13;100.00
3590;BME280;1809;48.470;9.226;2023-03-14T07:39:19;-16479.13;;;11.13;100.00
3590;BME280;1809;48.470;9.226;2023-03-14T07:41:45;-16483.19;;;11.27;100.00
3590;BME280;1809;48.470;9.226;2023-03-14T07:44:10;-16491.19;;;11.56;100.00
3590;BME280;1809;48.470;9.226;2023-03-14T07:46:35;-16491.19;;;11.56;100.00
3590;BME280;1809;48.470;9.226;2023-03-14T07:49:01;-16493.72;;;11.65;100.00
3590;BME280;1809;48.470;9.226;2023-03-14T07:51:26;-16495.69;;;11.72;100.00
3590;BME280;1809;48.470;9.226;2023-03-14T07:53:51;-16496.81;;;11.76;100.00
3590;BME280;1809;48.470;9.226;2023-03-14T07:56:17;-16500.19;;;11.89;100.00
3590;BME280;1809;48.470;9.226;2023-03-14T07:58:42;-16505.94;;;12.09;100.00
3590;BME280;1809;48.470;9.226;2023-03-14T08:01:07;-16509.44;;;12.22;100.00
3590;BME280;1809;48.470;9.226;2023-03-14T08:03:33;-16509.16;;;12.21;100.00
3590;BME280;1809;48.470;9.226;2023-03-14T08:05:58;-16505.94;;;12.09;100.00
3590;BME280;1809;48.470;9.226;2023-03-14T08:08:23;-16507.22;;;12.14;100.00
3590;BME280;1809;48.470;9.226;2023-03-14T08:10:49;-16510.00;;;12.24;100.00
3590;BME280;1809;48.470;9.226;2023-03-14T08:13:14;-16512.41;;;12.32;100.00
3590;BME280;1809;48.470;9.226;2023-03-14T08:15:40;-16513.09;;;12.35;100.00
3590;BME280;1809;48.470;9.226;2023-03-14T08:18:05;-16512.53;;;12.33;100.00
3590;BME280;1809;48.470;9.226;2023-03-14T08:20:31;-16515.34;;;12.43;100.00
3590;BME280;1809;48.470;9.226;2023-03-14T08:22:57;-16514.50;;;12.40;100.00
3590;BME280;1809;48.470;9.226;2023-03-14T08:25:24;-16515.50;;;12.44;100.00
3590;BME280;1809;48.470;9.226;2023-03-14T08:27:49;-16518.16;;;12.53;100.00
3590;BME280;1809;48.470;9.226;2023-03-14T08:30:16;-16517.59;;;12.51;100.00
3590;BME280;1809;48.470;9.226;2023-03-14T08:32:42;-16515.78;;;12.45;100.00
3590;BME280;1809;48.470;9.226;2023-03-14T08:35:08;-16517.88;;;12.52;100.00
3590;BME280;1809;48.470;9.226;2023-03-14T08:37:37;-16516.47;;;12.47;100.00
3590;BME280;1809;48.470;9.226;2023-03-14T08:40:04;-16517.88;;;12.52;100.00
3590;BME280;1809;48.470;9.226;2023-03-14T08:42:34;-16515.22;;;12.43;100.00
3590;BME280;1809;48.470;9.226;2023-03-14T08:45:00;-16512.81;;;12.34;100.00
3590;BME280;1809;48.470;9.226;2023-03-14T08:47:25;-16514.94;;;12.42;100.00
3590;BME280;1809;48.470;9.226;2023-03-14T08:49:51;-16525.03;;;12.78;100.00
3590;BME280;1809;48.470;9.226;2023-03-14T08:52:16;-16532.88;;;13.06;100.00
3590;BME280;1809;48.470;9.226;2023-03-14T08:54:45;-16538.22;;;13.25;100.00
3590;BME280;1809;48.470;9.226;2023-03-14T08:57:10;-16539.22;;;13.29;100.00
3590;BME280;1809;48.470;9.226;2023-03-14T08:59:36;-16538.22;;;13.25;100.00
3590;BME280;1809;48.470;9.226;2023-03-14T09:02:02;-16536.13;;;13.18;100.00
3590;BME280;1809;48.470;9.226;2023-03-14T09:04:31;-16535.56;;;13.16;100.00
3590;BME280;1809;48.470;9.226;2023-03-14T09:06:56;-16543.56;;;13.44;100.00
3590;BME280;1809;48.470;9.226;2023-03-14T09:09:23;-16545.38;;;13.51;100.00
3590;BME280;1809;48.470;9.226;2023-03-14T09:11:48;-16546.63;;;13.56;100.00
3590;BME280;1809;48.470;9.226;2023-03-14T09:14:14;-16544.69;;;13.48;100.00
3590;BME280;1809;48.470;9.226;2023-03-14T09:16:39;-16542.56;;;13.41;100.00
3590;BME280;1809;48.470;9.226;2023-03-14T09:19:04;-16535.56;;;13.16;100.00
3590;BME280;1809;48.470;9.226;2023-03-14T09:21:30;-16525.59;;;12.80;100.00
3590;BME280;1809;48.470;9.226;2023-03-14T09:23:56;-16517.31;;;12.50;100.00
3590;BME280;1809;48.470;9.226;2023-03-14T09:26:21;-16513.94;;;12.38;100.00
3590;BME280;1809;48.470;9.226;2023-03-14T09:28:47;-16504.81;;;12.05;100.00
3590;BME280;1809;48.470;9.226;2023-03-14T09:31:12;-16500.91;;;11.91;100.00
3590;BME280;1809;48.470;9.226;2023-03-14T09:33:38;-16504.25;;;12.03;100.00
3590;BME280;1809;48.470;9.226;2023-03-14T09:36:04;-16504.41;;;12.04;100.00
3590;BME280;1809;48.470;9.226;2023-03-14T09:38:30;-16507.91;;;12.16;100.00
3590;BME280;1809;48.470;9.226;2023-03-14T09:41:02;-16511.00;;;12.27;100.00
3590;BME280;1809;48.470;9.226;2023-03-14T09:43:31;-16512.25;;;12.32;100.00
3590;BME280;1809;48.470;9.226;2023-03-14T09:46:00;-16514.78;;;12.41;100.00
3590;BME280;1809;48.470;9.226;2023-03-14T09:48:29;-16508.34;;;12.18;100.00
3590;BME280;1809;48.470;9.226;2023-03-14T09:50:59;-13726.00;;;12.16;100.00
3590;BME280;1809;48.470;9.226;2023-03-14T09:53:45;15163.53;;;12.27;100.00
3590;BME280;1809;48.470;9.226;2023-03-14T09:56:14;10140.69;;;12.22;100.00
3590;BME280;1809;48.470;9.226;2023-03-14T09:58:43;10140.69;;;12.22;100.00
3590;BME280;1809;48.470;9.226;2023-03-14T10:01:11;10476.81;;;12.32;100.00
3590;BME280;1809;48.470;9.226;2023-03-14T10:03:41;-880.19;;;12.24;100.00
3590;BME280;1809;48.470;9.226;2023-03-14T10:06:13;1120.94;;;12.31;100.00
3590;BME280;1809;48.470;9.226;2023-03-14T10:08:43;-7909.94;;;12.36;100.00
3590;BME280;1809;48.470;9.226;2023-03-14T10:11:15;-5213.59;;;12.43;100.00
3590;BME280;1809;48.470;9.226;2023-03-14T10:14:06;-16525.16;;;12.78;100.00
3590;BME280;1809;48.470;9.226;2023-03-14T10:16:35;-16528.25;;;12.89;100.00
3590;BME280;1809;48.470;9.226;2023-03-14T10:19:06;-16534.72;;;13.13;100.00
3590;BME280;1809;48.470;9.226;2023-03-14T10:21:37;-16536.41;;;13.19;100.00
3590;BME280;1809;48.470;9.226;2023-03-14T10:24:25;-16536.13;;;13.18;100.00
3590;BME280;1809;48.470;9.226;2023-03-14T10:29:26;-16527.97;;;12.88;100.00
3590;BME280;1809;48.470;9.226;2023-03-14T10:31:54;-16526.72;;;12.84;100.00
3590;BME280;1809;48.470;9.226;2023-03-14T10:34:26;-16525.72;;;12.80;100.00
3590;BME280;1809;48.470;9.226;2023-03-14T10:36:53;-16527.13;;;12.85;100.00
3590;BME280;1809;48.470;9.226;2023-03-14T10:39:26;-16528.81;;;12.91;100.00
3590;BME280;1809;48.470;9.226;2023-03-14T10:42:03;-16527.13;;;12.85;100.00
3590;BME280;1809;48.470;9.226;2023-03-14T10:44:30;-16524.03;;;12.74;100.00
3590;BME280;1809;48.470;9.226;2023-03-14T10:47:01;-16525.44;;;12.79;100.00
3590;BME280;1809;48.470;9.226;2023-03-14T10:49:30;-16526.00;;;12.81;100.00
3590;BME280;1809;48.470;9.226;2023-03-14T10:52:01;-16523.50;;;12.72;100.00
3590;BME280;1809;48.470;9.226;2023-03-14T10:54:29;-16527.56;;;12.87;100.00
3590;BME280;1809;48.470;9.226;2023-03-14T10:56:59;-16525.72;;;12.80;100.00
3590;BME280;1809;48.470;9.226;2023-03-14T10:59:27;-16524.31;;;12.75;100.00
3590;BME280;1809;48.470;9.226;2023-03-14T11:02:03;-16526.84;;;12.84;100.00
3590;BME280;1809;48.470;9.226;2023-03-14T11:07:34;-16509.44;;;12.22;100.00
3590;BME280;1809;48.470;9.226;2023-03-14T11:18:42;94978.22;;;10.95;100.00
3590;BME280;1809;48.470;9.226;2023-03-14T11:26:53;125818.38;;;10.44;100.00
3590;BME280;1809;48.470;9.226;2023-03-14T11:32:02;131281.75;;;10.15;100.00
3590;BME280;1809;48.470;9.226;2023-03-14T11:34:49;133324.06;;;10.01;100.00
3590;BME280;1809;48.470;9.226;2023-03-14T11:37:26;134008.56;;;9.98;100.00
3590;BME280;1809;48.470;9.226;2023-03-14T11:40:10;136085.06;;;9.99;100.00
3590;BME280;1809;48.470;9.226;2023-03-14T11:42:38;138173.09;;;10.04;100.00
3590;BME280;1809;48.470;9.226;2023-03-14T11:45:14;137469.72;;;9.99;100.00
3590;BME280;1809;48.470;9.226;2023-03-14T11:47:42;136765.41;;;9.94;100.00
3590;BME280;1809;48.470;9.226;2023-03-14T11:50:16;136747.31;;;9.86;100.00
3590;BME280;1809;48.470;9.226;2023-03-14T11:55:31;138467.56;;;9.82;100.00
3590;BME280;1809;48.470;9.226;2023-03-14T12:00:38;141619.97;;;9.98;100.00
3590;BME280;1809;48.470;9.226;2023-03-14T12:14:00;118514.00;;;10.10;100.00
3590;BME280;1809;48.470;9.226;2023-03-14T12:16:36;118502.28;;;10.04;100.00
3590;BME280;1809;48.470;9.226;2023-03-14T12:19:36;119870.16;;;9.99;100.00
3590;BME280;1809;48.470;9.226;2023-03-14T12:22:12;125680.22;;;9.77;100.00
3590;BME280;1809;48.470;9.226;2023-03-14T12:24:47;132193.47;;;9.57;100.00
3590;BME280;1809;48.470;9.226;2023-03-14T12:27:44;139768.22;;;9.45;100.00
3590;BME280;1809;48.470;9.226;2023-03-14T12:32:41;150016.16;;;8.87;100.00
3590;BME280;1809;48.470;9.226;2023-03-14T12:35:42;154142.41;;;8.74;100.00
3590;BME280;1809;48.470;9.226;2023-03-14T12:43:45;153685.66;;;8.30;100.00
3590;BME280;1809;48.470;9.226;2023-03-14T12:48:44;152021.41;;;8.57;100.00
3590;BME280;1809;48.470;9.226;2023-03-14T12:54:02;147911.72;;;8.77;100.00
3590;BME280;1809;48.470;9.226;2023-03-14T12:56:40;144813.44;;;8.84;100.00
3590;BME280;1809;48.470;9.226;2023-03-14T13:01:46;147674.47;;;9.22;100.00
3590;BME280;1809;48.470;9.226;2023-03-14T13:04:13;145582.78;;;9.16;100.00
3590;BME280;1809;48.470;9.226;2023-03-14T13:06:52;144514.16;;;9.03;100.00
3590;BME280;1809;48.470;9.226;2023-03-14T13:12:57;139286.09;;;8.86;100.00
3590;BME280;1809;48.470;9.226;2023-03-14T13:15:30;133407.69;;;8.81;100.00
3590;BME280;1809;48.470;9.226;2023-03-14T13:18:02;124770.09;;;8.69;100.00
3590;BME280;1809;48.470;9.226;2023-03-14T13:20:34;117881.59;;;8.60;100.00
3590;BME280;1809;48.470;9.226;2023-03-14T13:23:01;99711.91;;;8.46;100.00
3590;BME280;1809;48.470;9.226;2023-03-14T13:25:31;76910.53;;;8.44;100.00
3590;BME280;1809;48.470;9.226;2023-03-14T13:27:58;46858.75;;;8.43;100.00
3590;BME280;1809;48.470;9.226;2023-03-14T13:30:29;31762.31;;;8.37;100.00
3590;BME280;1809;48.470;9.226;2023-03-14T13:33:03;2777.63;;;8.56;100.00
3590;BME280;1809;48.470;9.226;2023-03-14T13:35:54;-16403.25;;;8.40;100.00
3590;BME280;1809;48.470;9.226;2023-03-14T13:38:25;-6033.88;;;8.27;100.00
3590;BME280;1809;48.470;9.226;2023-03-14T13:40:54;-16397.63;;;8.20;100.00
3590;BME280;1809;48.470;9.226;2023-03-14T13:43:28;-16396.22;;;8.15;100.00
3590;BME280;1809;48.470;9.226;2023-03-14T13:46:02;-16397.34;;;8.19;100.00
3590;BME280;1809;48.470;9.226;2023-03-14T13:48:29;-16396.78;;;8.17;100.00
3590;BME280;1809;48.470;9.226;2023-03-14T13:50:59;-16396.50;;;8.16;100.00
3590;BME280;1809;48.470;9.226;2023-03-14T13:53:26;-16397.06;;;8.18;100.00
3590;BME280;1809;48.470;9.226;2023-03-14T13:55:52;-16398.47;;;8.23;100.00
3590;BME280;1809;48.470;9.226;2023-03-14T13:58:23;-16396.94;;;8.18;100.00
3590;BME280;1809;48.470;9.226;2023-03-14T14:00:58;-16395.53;;;8.13;100.00
3590;BME280;1809;48.470;9.226;2023-03-14T14:03:24;-16393.69;;;8.06;100.00
3590;BME280;1809;48.470;9.226;2023-03-14T14:05:50;-16394.97;;;8.10;100.00
3590;BME280;1809;48.470;9.226;2023-03-14T14:08:15;-16394.69;;;8.09;100.00
3590;BME280;1809;48.470;9.226;2023-03-14T14:10:41;-16395.25;;;8.11;100.00
3590;BME280;1809;48.470;9.226;2023-03-14T14:13:10;-16397.91;;;8.21;100.00
3590;BME280;1809;48.470;9.226;2023-03-14T14:15:51;-16406.34;;;8.51;100.00